METAR Data
IDs: Format: Raw Decoded Include TAF

Data at: 0227 UTC 24 Oct 2019

METAR for:KOXV (Knoxville Muni, IA, US)
Text:KOXV 240215Z AUTO 35012G19KT 10SM SCT016 BKN022 OVC029 06/04 A3008 RMK AO2
Temperature: 6.0°C ( 43°F)
Dewpoint: 4.0°C ( 39°F) [RH = 87%]
Pressure (altimeter):30.08 inches Hg (1018.7 mb)
Winds:from the N (350 degrees) at 14 MPH (12 knots; 6.2 m/s) gusting to 22 MPH (19 knots; 9.8 m/s)
Visibility:10 or more sm (16+ km)
Ceiling:2200 feet AGL
Clouds: scattered clouds at 1600 feet AGL, broken clouds at 2200 feet AGL, overcast cloud deck at 2900 feet AGL
QC Flag:automated observation with no human augmentation